This is the latest recevied weather packets stored in our database for station/object EA2BK-11. If no packets are shown the sender has not sent any weather packets the latest 10 day(s).
| Time | Temp. | Humidity | Pressure | Rain* | Wind** | Luminosity | Snow |
|---|---|---|---|---|---|---|---|
| 1777906024 | 18.33° C | 56% | 943 hPa | - | - | - | - |
| 1777905119 | 18.33° C | 54% | 943 hPa | - | - | - | - |
| 1777904214 | 24.44° C | 38% | 942 hPa | - | - | - | - |
| 1777903309 | 22.78° C | 42% | 942 hPa | - | - | - | - |
| 1777902403 | 22.22° C | 50% | 942 hPa | - | - | - | - |
| 1777901498 | 20° C | 55% | 942 hPa | - | - | - | - |
| 1777900593 | 22.22° C | 51% | 942 hPa | - | - | - | - |
| 1777899688 | 23.33° C | 49% | 942 hPa | - | - | - | - |
| 1777898783 | 23.89° C | 49% | 942 hPa | - | - | - | - |
| 1777896972 | 22.22° C | 50% | 942 hPa | - | - | - | - |
| 1777896067 | 21.67° C | 51% | 942 hPa | - | - | - | - |
| 1777895162 | 21.11° C | 50% | 942 hPa | - | - | - | - |
| 1777894257 | 21.11° C | 51% | 943 hPa | - | - | - | - |
| 1777893352 | 20.56° C | 55% | 943 hPa | - | - | - | - |
| 1777892446 | 21.11° C | 56% | 943 hPa | - | - | - | - |
| 1777891541 | 20.56° C | 58% | 943 hPa | - | - | - | - |
| 1777890636 | 20.56° C | 63% | 943 hPa | - | - | - | - |
| 1777889731 | 20.56° C | 66% | 943 hPa | - | - | - | - |
| 1777888826 | 20.56° C | 66% | 944 hPa | - | - | - | - |
| 1777887920 | 20.56° C | 68% | 944 hPa | - | - | - | - |
| 1777886110 | 19.44° C | 72% | 944 hPa | - | - | - | - |
| 1777885205 | 18.89° C | 73% | 944 hPa | - | - | - | - |
| 1777884300 | 18.89° C | 73% | 944 hPa | - | - | - | - |
| 1777883395 | 17.78° C | 74% | 944 hPa | - | - | - | - |
| 1777882489 | 17.78° C | 75% | 944 hPa | - | - | - | - |
* Rain since midnight (hover to see other rain measurements)
** Current wind speed in m/s (hover to see current wind gust speed)